createdAt,value
2022-08-21T00:01:32.065Z,98645.88
2022-08-21T00:03:58.278Z,98648.34
2022-08-21T00:06:25.160Z,98641.31
2022-08-21T00:08:51.341Z,98650.81
2022-08-21T00:11:17.606Z,98648.56
2022-08-21T00:13:43.832Z,98643.44
2022-08-21T00:16:10.020Z,98641.59
2022-08-21T00:18:36.244Z,98645.28
2022-08-21T00:21:02.407Z,98639.72
2022-08-21T00:23:28.571Z,98632.09
2022-08-21T00:25:54.733Z,98638.28
2022-08-21T00:28:20.854Z,98625.72
2022-08-21T00:30:46.981Z,98623.66
2022-08-21T00:33:13.435Z,98615.22
2022-08-21T00:35:39.570Z,98616.47
2022-08-21T00:38:05.711Z,98622.66
2022-08-21T00:40:31.873Z,98619.34
2022-08-21T00:42:58.028Z,98619.13
2022-08-21T00:45:24.170Z,98619.34
2022-08-21T00:47:50.320Z,98626.97
2022-08-21T00:50:21.767Z,98622.44
2022-08-21T00:52:48.466Z,98620.78
2022-08-21T00:55:14.783Z,98616.63
2022-08-21T00:57:41.456Z,98621.59
2022-08-21T01:00:07.592Z,98621.38
2022-08-21T01:02:33.826Z,98613.75
2022-08-21T01:04:59.978Z,98613.75
2022-08-21T01:07:27.666Z,98613.13
2022-08-21T01:09:54.012Z,98614.34
2022-08-21T01:12:20.137Z,98610.47
2022-08-21T01:14:46.270Z,98605.94
2022-08-21T01:17:12.437Z,98615.44
2022-08-21T01:19:38.566Z,98608.84
2022-08-21T01:22:04.718Z,98609.22
2022-08-21T01:24:30.876Z,98612.31
2022-08-21T01:26:57.015Z,98604.28
2022-08-21T01:29:23.150Z,98606.34
2022-08-21T01:31:49.314Z,98599.75
2022-08-21T01:34:15.449Z,98598.06
2022-08-21T01:36:41.580Z,98603.44
2022-08-21T01:39:07.742Z,98606.34
2022-08-21T01:41:33.878Z,98608.59
2022-08-21T01:44:00.023Z,98612.09
2022-08-21T01:46:26.175Z,98606.34
2022-08-21T01:48:52.327Z,98607.16
2022-08-21T01:51:18.459Z,98611.25
2022-08-21T01:53:44.628Z,98604.47
2022-08-21T01:56:12.498Z,98611.06
2022-08-21T01:58:38.903Z,98606.09
2022-08-21T02:01:05.115Z,98621.31
2022-08-21T02:03:35.823Z,98612.91
2022-08-21T02:06:02.488Z,98600.72
2022-08-21T02:08:28.642Z,98596.44
2022-08-21T02:10:54.791Z,98601.78
2022-08-21T02:13:20.934Z,98605.91
2022-08-21T02:15:47.080Z,98597.25
2022-08-21T02:18:13.230Z,98584.31
2022-08-21T02:20:39.347Z,98592.53
2022-08-21T02:23:05.501Z,98589.03
2022-08-21T02:25:31.643Z,98591.09
2022-08-21T02:27:57.786Z,98586.38
2022-08-21T02:30:23.953Z,98591.91
2022-08-21T02:32:50.081Z,98596.03
2022-08-21T02:35:16.220Z,98590.88
2022-08-21T02:37:42.943Z,98578.75
2022-08-21T02:40:09.104Z,98581.84
2022-08-21T02:42:35.278Z,98585.75
2022-08-21T02:45:01.425Z,98586.16
2022-08-21T02:47:27.554Z,98577.72
2022-08-21T02:49:53.693Z,98578.31
2022-08-21T02:52:20.123Z,98579.75
2022-08-21T02:54:46.252Z,98574.22
2022-08-21T02:57:12.398Z,98574.00
2022-08-21T02:59:38.600Z,98575.88
2022-08-21T03:02:04.781Z,98575.25
2022-08-21T03:04:30.953Z,98564.75
2022-08-21T03:06:57.107Z,98577.94
2022-08-21T03:09:23.240Z,98571.75
2022-08-21T03:11:49.372Z,98567.22
2022-08-21T03:14:15.525Z,98576.09
2022-08-21T03:16:41.677Z,98572.59
2022-08-21T03:19:07.803Z,98567.84
2022-08-21T03:21:33.958Z,98563.09
2022-08-21T03:24:00.098Z,98575.88
2022-08-21T03:26:30.339Z,98570.91
2022-08-21T03:28:57.732Z,98564.31
2022-08-21T03:31:23.875Z,98566.59
2022-08-21T03:33:50.008Z,98570.31
2022-08-21T03:36:16.184Z,98562.69
2022-08-21T03:38:42.317Z,98561.25
2022-08-21T03:41:08.464Z,98566.59
2022-08-21T03:43:34.914Z,98574.81
2022-08-21T03:46:01.046Z,98573.34
2022-08-21T03:48:27.165Z,98574.81
2022-08-21T03:50:53.395Z,98576.66
2022-08-21T03:53:19.517Z,98581.13
2022-08-21T03:55:45.653Z,98578.03
2022-08-21T03:58:16.200Z,98575.78
2022-08-21T04:00:43.189Z,98580.53
2022-08-21T04:03:09.316Z,98583.59
2022-08-21T04:05:35.479Z,98578.22
2022-08-21T04:08:01.618Z,98590.16
2022-08-21T04:10:27.763Z,98580.75
2022-08-21T04:12:54.013Z,98581.97
2022-08-21T04:15:20.221Z,98587.69
2022-08-21T04:17:46.365Z,98584.38
2022-08-21T04:20:12.518Z,98582.34
2022-08-21T04:22:38.641Z,98584.63
2022-08-21T04:25:04.762Z,98592.81
2022-08-21T04:27:30.904Z,98584.19
2022-08-21T04:29:57.055Z,98596.09
2022-08-21T04:32:23.200Z,98591.53
2022-08-21T04:34:49.351Z,98601.50
2022-08-21T04:37:15.497Z,98588.72
2022-08-21T04:39:41.653Z,98592.47
2022-08-21T04:42:07.941Z,98595.19
2022-08-21T04:44:34.079Z,98600.66
2022-08-21T04:47:00.205Z,98592.31
2022-08-21T04:49:26.345Z,98593.41
2022-08-21T04:51:52.469Z,98594.22
2022-08-21T04:54:18.599Z,98594.16
2022-08-21T04:56:44.802Z,98588.16
2022-08-21T04:59:10.933Z,98591.25
2022-08-21T05:01:37.190Z,98595.25
2022-08-21T05:04:03.380Z,98593.50
2022-08-21T05:06:29.527Z,98590.91
2022-08-21T05:08:55.852Z,98597.53
2022-08-21T05:11:28.335Z,98596.25
2022-08-21T05:13:57.052Z,98597.50
2022-08-21T05:16:36.815Z,98598.97
2022-08-21T05:19:03.738Z,98603.13
2022-08-21T05:21:29.890Z,98593.41
2022-08-21T05:23:56.047Z,98599.38
2022-08-21T05:26:22.220Z,98605.16
2022-08-21T05:28:48.374Z,98600.84
2022-08-21T05:31:14.500Z,98601.03
2022-08-21T05:33:41.015Z,98604.75
2022-08-21T05:36:10.178Z,98606.63
2022-08-21T05:38:36.323Z,98601.09
2022-08-21T05:41:02.579Z,98608.50
2022-08-21T05:43:28.720Z,98600.84
2022-08-21T05:45:54.865Z,98606.19
2022-08-21T05:48:21.505Z,98606.19
2022-08-21T05:50:47.648Z,98608.69
2022-08-21T05:53:13.781Z,98609.69
2022-08-21T05:55:44.909Z,98602.09
2022-08-21T05:58:12.125Z,98608.88
2022-08-21T06:00:38.275Z,98601.72
2022-08-21T06:03:04.708Z,98606.25
2022-08-21T06:05:37.058Z,98604.44
2022-08-21T06:08:03.728Z,98595.63
2022-08-21T06:10:30.358Z,98610.22
2022-08-21T06:12:56.575Z,98603.22
2022-08-21T06:15:22.826Z,98608.38
2022-08-21T06:17:48.964Z,98597.06
2022-08-21T06:20:15.106Z,98607.97
2022-08-21T06:22:41.264Z,98605.28
2022-08-21T06:25:07.417Z,98604.47
2022-08-21T06:27:33.556Z,98602.84
2022-08-21T06:29:59.698Z,98609.00
2022-08-21T06:32:25.877Z,98607.34
2022-08-21T06:34:52.007Z,98607.56
2022-08-21T06:37:18.146Z,98602.69
2022-08-21T06:39:45.449Z,98606.38
2022-08-21T06:42:11.699Z,98601.03
2022-08-21T06:44:37.837Z,98601.81
2022-08-21T06:47:04.064Z,98600.19
2022-08-21T06:49:30.218Z,98595.22
2022-08-21T06:51:56.359Z,98597.06
2022-08-21T06:54:22.805Z,98599.31
2022-08-21T06:56:48.966Z,98590.22
2022-08-21T06:59:15.106Z,98595.78
2022-08-21T07:01:41.265Z,98593.06
2022-08-21T07:04:07.468Z,98600.41
2022-08-21T07:06:34.057Z,98603.31
2022-08-21T07:09:01.162Z,98599.56
2022-08-21T07:11:27.304Z,98593.78
2022-08-21T07:13:53.439Z,98600.09
2022-08-21T07:16:19.575Z,98605.38
2022-08-21T07:18:45.713Z,98608.66
2022-08-21T07:21:11.841Z,98607.72
2022-08-21T07:23:37.985Z,98603.94
2022-08-21T07:26:04.330Z,98597.53
2022-08-21T07:28:30.613Z,98604.22
2022-08-21T07:30:56.797Z,98598.03
2022-08-21T07:33:22.936Z,98606.13
2022-08-21T07:35:49.069Z,98605.06
2022-08-21T07:38:15.223Z,98611.84
2022-08-21T07:40:41.361Z,98607.28
2022-08-21T07:43:07.502Z,98615.09
2022-08-21T07:45:33.687Z,98602.19
2022-08-21T07:47:59.811Z,98608.31
2022-08-21T07:50:25.936Z,98607.34
2022-08-21T07:52:52.159Z,98602.19
2022-08-21T07:55:18.335Z,98609.75
2022-08-21T07:57:44.448Z,98610.91
2022-08-21T08:00:10.606Z,98603.72
2022-08-21T08:02:36.744Z,98610.66
2022-08-21T08:05:02.885Z,98599.84
2022-08-21T08:07:29.539Z,98606.34
2022-08-21T08:09:55.663Z,98602.56
2022-08-21T08:12:21.795Z,98594.03
2022-08-21T08:14:47.933Z,98601.19
2022-08-21T08:17:14.062Z,98591.84
2022-08-21T08:19:40.192Z,98599.84
2022-08-21T08:22:06.345Z,98597.56
2022-08-21T08:24:32.474Z,98589.16
2022-08-21T08:26:58.625Z,98598.88
2022-08-21T08:29:24.770Z,98598.56
2022-08-21T08:31:50.905Z,98591.22
2022-08-21T08:34:23.579Z,98595.66
2022-08-21T08:36:51.965Z,98586.09
2022-08-21T08:39:26.502Z,98588.47
2022-08-21T08:41:58.684Z,98593.06
2022-08-21T08:44:25.005Z,98590.38
2022-08-21T08:46:57.489Z,98598.69
2022-08-21T08:49:23.790Z,98592.38
2022-08-21T08:51:53.137Z,98602.34
2022-08-21T08:54:19.420Z,98602.22
2022-08-21T08:56:45.856Z,98589.69
2022-08-21T08:59:11.990Z,98598.50
2022-08-21T09:01:39.224Z,98585.94
2022-08-21T09:04:05.555Z,98587.09
2022-08-21T09:06:31.685Z,98587.44
2022-08-21T09:08:57.834Z,98573.75
2022-08-21T09:11:23.981Z,98597.19
2022-08-21T09:13:50.113Z,98577.38
2022-08-21T09:16:16.260Z,98578.56
2022-08-21T09:18:42.415Z,98581.56
2022-08-21T09:21:08.541Z,98573.72
2022-08-21T09:23:34.680Z,98577.09
2022-08-21T09:26:00.848Z,98576.63
2022-08-21T09:28:26.994Z,98571.91
2022-08-21T09:30:53.131Z,98585.38
2022-08-21T09:33:19.292Z,98582.59
2022-08-21T09:35:45.446Z,98577.81
2022-08-21T09:38:11.632Z,98586.50
2022-08-21T09:40:37.882Z,98580.44
2022-08-21T09:43:10.482Z,98571.34
2022-08-21T09:45:36.611Z,98562.56
2022-08-21T09:48:02.794Z,98558.22
2022-08-21T09:50:28.920Z,98567.50
2022-08-21T09:52:56.492Z,98571.19
2022-08-21T09:55:22.730Z,98571.19
2022-08-21T09:57:50.318Z,98558.97
2022-08-21T10:00:16.942Z,98567.78
2022-08-21T10:02:43.133Z,98577.03
2022-08-21T10:05:09.266Z,98561.25
2022-08-21T10:07:35.406Z,98558.88
2022-08-21T10:10:01.836Z,98561.13
2022-08-21T10:12:27.961Z,98554.56
2022-08-21T10:14:54.101Z,98558.31
2022-08-21T10:17:20.762Z,98548.50
2022-08-21T10:19:49.719Z,98553.81
2022-08-21T10:22:15.874Z,98544.47
2022-08-21T10:24:42.102Z,98552.91
2022-08-21T10:27:08.251Z,98545.00
2022-08-21T10:29:34.381Z,98551.28
2022-08-21T10:32:00.524Z,98544.09
2022-08-21T10:34:26.665Z,98543.91
2022-08-21T10:36:52.798Z,98546.22
2022-08-21T10:39:26.634Z,98542.06
2022-08-21T10:42:01.519Z,98542.13
2022-08-21T10:44:27.678Z,98533.31
2022-08-21T10:46:53.809Z,98535.09
2022-08-21T10:49:19.963Z,98533.75
2022-08-21T10:51:46.115Z,98530.25
2022-08-21T10:54:12.253Z,98530.91
2022-08-21T10:56:38.416Z,98535.50
2022-08-21T10:59:06.648Z,98534.50
2022-08-21T11:01:32.785Z,98542.88
2022-08-21T11:03:58.916Z,98540.47
2022-08-21T11:06:26.765Z,98534.75
2022-08-21T11:08:52.894Z,98529.66
2022-08-21T11:11:19.935Z,98525.56
2022-08-21T11:13:48.469Z,98519.38
2022-08-21T11:16:14.648Z,98530.31
2022-08-21T11:18:40.777Z,98522.00
2022-08-21T11:21:06.924Z,98532.13
2022-08-21T11:23:33.053Z,98521.50
2022-08-21T11:25:59.184Z,98521.63
2022-08-21T11:28:25.360Z,98524.16
2022-08-21T11:30:51.513Z,98515.00
2022-08-21T11:33:17.646Z,98523.16
2022-08-21T11:35:43.841Z,98523.06
2022-08-21T11:38:10.006Z,98518.13
2022-08-21T11:40:36.136Z,98531.59
2022-08-21T11:43:02.313Z,98523.06
2022-08-21T11:45:28.889Z,98512.66
2022-08-21T11:47:55.033Z,98517.88
2022-08-21T11:50:34.237Z,98526.91
2022-08-21T11:53:02.385Z,98515.38
2022-08-21T11:55:28.536Z,98513.72
2022-08-21T11:57:54.679Z,98520.78
2022-08-21T12:00:20.802Z,98516.50
2022-08-21T12:02:46.942Z,98511.22
2022-08-21T12:05:13.066Z,98516.88
2022-08-21T12:07:39.192Z,98525.31
2022-08-21T12:10:05.822Z,98511.72
2022-08-21T12:12:31.955Z,98525.47
2022-08-21T12:14:58.088Z,98520.88
2022-08-21T12:17:24.233Z,98528.22
2022-08-21T12:19:50.352Z,98529.84
2022-08-21T12:22:16.499Z,98526.84
2022-08-21T12:24:42.663Z,98521.13
2022-08-21T12:27:08.807Z,98526.09
2022-08-21T12:29:34.942Z,98527.72
2022-08-21T12:32:01.104Z,98522.50
2022-08-21T12:34:27.252Z,98511.41
2022-08-21T12:36:53.398Z,98517.50
2022-08-21T12:39:19.557Z,98498.13
2022-08-21T12:41:45.690Z,98511.63
2022-08-21T12:44:11.826Z,98508.69
2022-08-21T12:46:38.001Z,98508.13
2022-08-21T12:49:04.139Z,98514.94
2022-08-21T12:51:30.269Z,98508.13
2022-08-21T12:53:56.461Z,98512.31
2022-08-21T12:56:22.579Z,98512.84
2022-08-21T12:58:48.712Z,98502.59
2022-08-21T13:01:14.880Z,98508.88
2022-08-21T13:03:41.008Z,98509.47
2022-08-21T13:06:07.159Z,98513.47
2022-08-21T13:08:37.507Z,98511.28
2022-08-21T13:11:09.295Z,98511.78
2022-08-21T13:13:46.780Z,98516.88
2022-08-21T13:16:16.398Z,98499.97
2022-08-21T13:18:43.134Z,98503.44
2022-08-21T13:21:09.880Z,98510.38
2022-08-21T13:23:36.007Z,98499.03
2022-08-21T13:26:02.159Z,98508.78
2022-08-21T13:28:28.319Z,98508.59
2022-08-21T13:30:54.441Z,98501.84
2022-08-21T13:33:20.604Z,98497.97
2022-08-21T13:35:46.748Z,98499.22
2022-08-21T13:38:12.885Z,98502.84
2022-08-21T13:40:39.038Z,98501.59
2022-08-21T13:43:05.190Z,98494.03
2022-08-21T13:45:31.320Z,98495.63
2022-08-21T13:47:57.492Z,98503.09
2022-08-21T13:50:23.649Z,98496.75
2022-08-21T13:52:49.799Z,98493.72
2022-08-21T13:55:15.940Z,98509.69
2022-08-21T13:57:42.106Z,98493.59
2022-08-21T14:00:08.245Z,98507.53
2022-08-21T14:02:34.409Z,98489.50
2022-08-21T14:05:00.544Z,98498.56
2022-08-21T14:07:26.690Z,98507.31
2022-08-21T14:09:52.840Z,98502.41
2022-08-21T14:12:23.556Z,98505.50
2022-08-21T14:14:50.100Z,98504.53
2022-08-21T14:17:24.426Z,98487.81
2022-08-21T14:19:51.264Z,98480.66
2022-08-21T14:22:17.426Z,98485.38
2022-08-21T14:24:43.583Z,98484.81
2022-08-21T14:27:09.710Z,98477.72
2022-08-21T14:29:35.888Z,98479.41
2022-08-21T14:32:02.028Z,98479.72
2022-08-21T14:34:35.768Z,98490.66
2022-08-21T14:37:02.228Z,98495.56
2022-08-21T14:39:28.395Z,98485.75
2022-08-21T14:41:54.533Z,98499.16
2022-08-21T14:44:20.694Z,98488.31
2022-08-21T14:46:55.921Z,98494.91
2022-08-21T14:49:23.022Z,98493.03
2022-08-21T14:51:54.041Z,98510.75
2022-08-21T14:54:20.680Z,98492.59
2022-08-21T14:56:49.380Z,98503.69
2022-08-21T14:59:20.104Z,98482.13
2022-08-21T15:01:46.289Z,98490.19
2022-08-21T15:04:12.545Z,98480.50
2022-08-21T15:06:38.689Z,98478.66
2022-08-21T15:09:04.824Z,98478.88
2022-08-21T15:11:42.868Z,98480.72
2022-08-21T15:14:09.357Z,98471.25
2022-08-21T15:16:35.818Z,98479.97
2022-08-21T15:19:01.960Z,98488.75
2022-08-21T15:21:28.108Z,98481.00
2022-08-21T15:23:54.241Z,98479.19
2022-08-21T15:26:20.385Z,98488.75
2022-08-21T15:28:46.520Z,98488.78
2022-08-21T15:31:13.142Z,98480.41
2022-08-21T15:33:39.286Z,98490.97
2022-08-21T15:36:05.412Z,98486.06
2022-08-21T15:38:31.571Z,98484.44
2022-08-21T15:40:57.709Z,98487.69
2022-08-21T15:43:29.950Z,98484.44
2022-08-21T15:45:56.670Z,98479.00
2022-08-21T15:48:22.826Z,98486.59
2022-08-21T15:50:48.952Z,98481.19
2022-08-21T15:53:15.103Z,98485.00
2022-08-21T15:55:41.260Z,98480.09
2022-08-21T15:58:07.398Z,98474.44
2022-08-21T16:00:33.550Z,98489.72
2022-08-21T16:02:59.810Z,98486.44
2022-08-21T16:05:26.256Z,98482.03
2022-08-21T16:07:52.411Z,98484.13
2022-08-21T16:10:18.538Z,98479.22
2022-08-21T16:12:44.682Z,98484.75
2022-08-21T16:15:10.854Z,98486.13
2022-08-21T16:17:46.594Z,98473.09
2022-08-21T16:20:13.095Z,98486.50
2022-08-21T16:22:44.685Z,98472.41
2022-08-21T16:25:11.184Z,98477.28
2022-08-21T16:27:37.323Z,98481.13
2022-08-21T16:30:05.920Z,98473.09
2022-08-21T16:32:32.063Z,98473.44
2022-08-21T16:34:58.248Z,98469.66
2022-08-21T16:37:24.720Z,98477.84
2022-08-21T16:39:51.004Z,98471.66
2022-08-21T16:42:19.553Z,98479.16
2022-08-21T16:44:48.945Z,98471.47
2022-08-21T16:47:26.729Z,98471.94
2022-08-21T16:49:53.648Z,98471.84
2022-08-21T16:52:19.773Z,98464.88
2022-08-21T16:54:45.913Z,98464.31
2022-08-21T16:57:12.084Z,98468.44
2022-08-21T16:59:38.204Z,98467.06
2022-08-21T17:02:04.338Z,98472.59
2022-08-21T17:04:30.481Z,98467.00
2022-08-21T17:06:56.601Z,98461.81
2022-08-21T17:09:22.722Z,98466.53
2022-08-21T17:11:48.865Z,98474.69
2022-08-21T17:14:14.993Z,98470.88
2022-08-21T17:16:41.126Z,98469.88
2022-08-21T17:19:08.207Z,98455.34
2022-08-21T17:21:34.511Z,98470.94
2022-08-21T17:24:00.641Z,98468.97
2022-08-21T17:26:26.800Z,98466.41
2022-08-21T17:28:54.845Z,98474.91
2022-08-21T17:31:21.273Z,98476.78
2022-08-21T17:33:47.962Z,98482.22
2022-08-21T17:36:14.080Z,98481.16
2022-08-21T17:38:40.208Z,98477.81
2022-08-21T17:41:06.349Z,98475.31
2022-08-21T17:43:32.506Z,98483.59
2022-08-21T17:45:58.643Z,98476.28
2022-08-21T17:48:25.545Z,98470.00
2022-08-21T17:50:51.776Z,98469.66
2022-08-21T17:53:17.921Z,98476.34
2022-08-21T17:55:44.073Z,98469.09
2022-08-21T17:58:10.198Z,98473.38
2022-08-21T18:00:36.335Z,98471.88
2022-08-21T18:03:02.551Z,98466.28
2022-08-21T18:05:28.693Z,98476.84
2022-08-21T18:07:54.819Z,98474.34
2022-08-21T18:10:20.974Z,98476.97
2022-08-21T18:12:47.107Z,98478.22
2022-08-21T18:15:13.242Z,98488.00
2022-08-21T18:17:39.409Z,98481.94
2022-08-21T18:20:05.558Z,98482.13
2022-08-21T18:22:31.716Z,98487.72
2022-08-21T18:24:57.856Z,98484.00
2022-08-21T18:27:29.073Z,98494.06
2022-08-21T18:29:55.807Z,98500.53
2022-08-21T18:32:31.810Z,98491.69
2022-08-21T18:34:58.331Z,98495.59
2022-08-21T18:37:24.486Z,98497.47
2022-08-21T18:39:50.675Z,98494.13
2022-08-21T18:42:16.948Z,98492.34
2022-08-21T18:44:43.125Z,98497.41
2022-08-21T18:47:09.300Z,98488.66
2022-08-21T18:49:35.481Z,98497.56
2022-08-21T18:52:01.841Z,98497.50
2022-08-21T18:54:29.473Z,98505.97
2022-08-21T18:56:55.605Z,98505.50
2022-08-21T18:59:23.394Z,98508.69
2022-08-21T19:01:50.757Z,98497.31
2022-08-21T19:04:40.913Z,98505.28
2022-08-21T19:07:03.043Z,98512.56
2022-08-21T19:09:29.175Z,98501.53
2022-08-21T19:11:55.310Z,98516.34
2022-08-21T19:14:22.756Z,98508.47
2022-08-21T19:16:51.093Z,98513.81
2022-08-21T19:19:17.226Z,98512.81
2022-08-21T19:21:43.389Z,98506.13
2022-08-21T19:26:55.933Z,98508.06
2022-08-21T19:29:22.199Z,98511.94
2022-08-21T19:32:01.401Z,98509.56
2022-08-21T19:34:28.134Z,98506.56
2022-08-21T19:36:54.275Z,98519.81
2022-08-21T19:39:20.925Z,98512.44
2022-08-21T19:41:47.219Z,98511.13
2022-08-21T19:44:17.270Z,98513.81
2022-08-21T19:46:45.594Z,98506.81
2022-08-21T19:49:11.732Z,98511.34
2022-08-21T19:51:37.848Z,98511.78
2022-08-21T19:54:04.151Z,98509.41
2022-08-21T19:56:30.274Z,98510.84
2022-08-21T19:58:56.406Z,98518.22
2022-08-21T20:01:22.574Z,98520.03
2022-08-21T20:03:53.758Z,98508.72
2022-08-21T20:06:20.435Z,98511.84
2022-08-21T20:08:46.579Z,98522.06
2022-08-21T20:11:12.704Z,98520.66
2022-08-21T20:13:38.834Z,98517.03
2022-08-21T20:16:09.488Z,98519.38
2022-08-21T20:18:35.751Z,98520.34
2022-08-21T20:21:01.983Z,98521.75
2022-08-21T20:23:30.920Z,98515.19
2022-08-21T20:26:00.348Z,98524.56
2022-08-21T20:28:27.346Z,98516.16
2022-08-21T20:30:54.992Z,98514.97
2022-08-21T20:33:21.135Z,98518.38
2022-08-21T20:35:47.295Z,98520.72
2022-08-21T20:38:13.921Z,98524.56
2022-08-21T20:40:40.062Z,98519.31
2022-08-21T20:43:06.269Z,98518.47
2022-08-21T20:45:32.417Z,98519.31
2022-08-21T20:47:58.566Z,98514.63
2022-08-21T20:50:24.715Z,98527.50
2022-08-21T20:52:50.867Z,98523.41
2022-08-21T20:55:17.593Z,98526.56
2022-08-21T20:57:43.877Z,98519.75
2022-08-21T21:00:14.511Z,98529.25
2022-08-21T21:02:40.926Z,98527.09
2022-08-21T21:05:07.077Z,98527.69
2022-08-21T21:07:33.458Z,98529.31
2022-08-21T21:09:59.593Z,98524.38
2022-08-21T21:15:11.866Z,98520.16
2022-08-21T21:17:38.400Z,98520.75
2022-08-21T21:20:05.608Z,98518.66
2022-08-21T21:22:32.126Z,98519.94
2022-08-21T21:24:58.252Z,98519.94
2022-08-21T21:27:24.750Z,98516.88
2022-08-21T21:29:52.132Z,98505.28
2022-08-21T21:32:18.508Z,98513.81
2022-08-21T21:34:44.637Z,98511.34
2022-08-21T21:37:10.998Z,98509.81
2022-08-21T21:39:38.145Z,98515.34
2022-08-21T21:42:05.819Z,98510.31
2022-08-21T21:44:32.267Z,98512.28
2022-08-21T21:46:58.401Z,98507.47
2022-08-21T21:49:24.525Z,98507.47
2022-08-21T21:51:51.606Z,98517.31
2022-08-21T21:54:23.091Z,98505.38
2022-08-21T21:56:52.694Z,98514.13
2022-08-21T21:59:18.834Z,98514.03
2022-08-21T22:01:45.010Z,98516.31
2022-08-21T22:04:11.186Z,98514.06
2022-08-21T22:06:43.146Z,98512.56
2022-08-21T22:09:09.426Z,98519.88
2022-08-21T22:11:36.614Z,98515.50
2022-08-21T22:14:04.201Z,98511.88
2022-08-21T22:16:31.348Z,98512.31
2022-08-21T22:18:57.970Z,98516.88
2022-08-21T22:21:24.185Z,98506.22
2022-08-21T22:23:50.392Z,98516.72
2022-08-21T22:26:16.561Z,98522.50
2022-08-21T22:28:43.030Z,98520.09
2022-08-21T22:31:10.243Z,98524.31
2022-08-21T22:33:36.423Z,98523.16
2022-08-21T22:36:02.554Z,98526.38
2022-08-21T22:38:28.677Z,98526.22
2022-08-21T22:40:56.843Z,98527.47
2022-08-21T22:43:22.976Z,98523.25
2022-08-21T22:45:49.103Z,98525.13
2022-08-21T22:48:22.571Z,98533.09
2022-08-21T22:50:48.956Z,98530.94
2022-08-21T22:53:17.471Z,98526.91
2022-08-21T22:55:44.067Z,98534.31
2022-08-21T22:58:10.227Z,98525.19
2022-08-21T23:00:36.402Z,98528.41
2022-08-21T23:03:03.633Z,98527.28
2022-08-21T23:05:30.592Z,98524.16
2022-08-21T23:07:56.917Z,98524.09
2022-08-21T23:10:23.234Z,98520.28
2022-08-21T23:12:54.222Z,98519.59
2022-08-21T23:15:20.614Z,98520.28
2022-08-21T23:17:50.115Z,98514.44
2022-08-21T23:20:16.398Z,98513.78
2022-08-21T23:22:42.545Z,98520.66
2022-08-21T23:25:08.687Z,98508.50
2022-08-21T23:27:35.928Z,98508.84
2022-08-21T23:30:02.225Z,98515.72
2022-08-21T23:35:15.171Z,98515.22
2022-08-21T23:37:49.083Z,98518.50
2022-08-21T23:40:15.787Z,98525.50
2022-08-21T23:42:45.762Z,98513.13
2022-08-21T23:45:14.079Z,98520.34
2022-08-21T23:47:40.474Z,98519.78
2022-08-21T23:50:13.942Z,98523.41
2022-08-21T23:52:42.774Z,98525.03
2022-08-21T23:55:09.094Z,98526.44
2022-08-21T23:57:35.218Z,98517.13
